Sarcobatus Flat, Nevada Weather observations

Data are for observation ending at time listed.
 Day   Time    Ave.   Ave.  Ave.  Vector   Max.   Stn.    Total    Solar   Ave.  
  of    of     Air    Rel.  Wind   Wind    Wind   Baro.  Precip.   Rad.    Soil  
Year   Day     Temp.  Hum.  Speed  Dir.    Gust   Pres.                    Temp. 
2015   (PST)    F      %     mph   deg.    mph     mb.     in.     W/m2     F   
------------------------------------------------------------------------------
 215    3:50   67.2    52    3.2   146      4.8   877.2    0.00       0    999.0
 215    4:00   66.3    54    1.8   167      3.1   877.2    0.00       0    999.0
 215    4:10   65.6    57    3.3   181      5.0   877.4    0.00       0    999.0
 215    4:20   64.1    62    1.9   160      3.7   877.5    0.00       0    999.0
 215    4:30   62.8    66    2.6   166      3.9   877.6    0.00       0    999.0
 215    4:40   61.8    69    2.9   154      5.8   877.6    0.00       0    999.0
 215    4:50   61.7    68    3.2   173      5.1   877.7    0.00       1    999.0
 215    5:00   62.4    64    3.4   220      5.0   877.8    0.00       4    999.0
 215    5:10   62.6    62    1.5   228      4.3   877.8    0.00       9    999.0
 215    5:20   62.2    63    1.9   143      3.0   877.8    0.00      17    999.0
 215    5:30   62.4    64    2.3   184      2.9   878.0    0.00      51    999.0
 215    5:40   64.0    61    1.3   225      2.7   878.1    0.00      90    999.0
 215    5:50   65.8    58    1.2    82      3.1   878.1    0.00     118    999.0
 215    6:00   66.7    55    2.3    54      3.7   878.1    0.00     146    999.0
 215    6:10   69.1    49    1.0    64      2.3   878.2    0.00     178    999.0
 215    6:20   70.6    45    0.9   354      2.5   878.1    0.00     211    999.0
 215    6:30   71.3    44    0.4   338      1.9   878.2    0.00     245    999.0
 215    6:40   73.1    41    0.4     2      1.8   878.3    0.00     280    999.0
 215    6:50   74.4    39    0.7   102      2.0   878.4    0.00     315    999.0
 215    7:00   72.7    41    1.8   108      2.9   878.4    0.00     350    999.0
 215    7:10   73.9    39    1.3    78      2.5   878.4    0.00     385    999.0
 215    7:20   75.4    37    0.9    95      2.3   878.4    0.00     420    999.0
 215    7:30   76.7    35    1.2    96      2.5   878.3    0.00     455    999.0
 215    7:40   77.3    34    1.7    87      3.4   878.4    0.00     489    999.0
 215    7:50   78.9    31    1.1    71      2.3   878.4    0.00     523    999.0
 215    8:00   80.9    28    1.2   307      2.6   878.3    0.00     552    999.0
 215    8:10   82.4    25    1.0   224      3.8   878.3    0.00     583    999.0
 215    8:20   83.3    23    0.7   117      3.0   878.2    0.00     615    999.0
 215    8:30   83.3    23    2.0   115      5.7   878.2    0.00     647    999.0
 215    8:40   83.4    23    2.6   166      5.1   878.2    0.00     680    999.0
 215    8:50   83.3    23    4.3   135      7.1   878.2    0.00     713    999.0
 215    9:00   84.1    22    2.7   125      7.5   878.2    0.00     741    999.0
 215    9:10   85.2    20    3.7   138     13.0   878.1    0.00     768    999.0
 215    9:20   85.8    20    3.7   188      9.0   878.1    0.00     797    999.0
 215    9:30   86.1    20    2.4   179      7.5   878.0    0.00     824    999.0
 215    9:40   86.9    19    2.0   133      5.7   878.0    0.00     846    999.0
 215    9:50   87.7    17    4.7   174      9.1   877.9    0.00     869    999.0
 215   10:00   88.2    15    5.9   145     11.2   877.8    0.00     891    999.0
 215   10:10   88.9    14    5.3   172     12.4   877.7    0.00     912    999.0
 215   10:20   89.8    14    5.7   177     11.9   877.6    0.00     937    999.0
 215   10:30   90.7    13    6.5   194     12.5   877.4    0.00     947    999.0
 215   10:40   91.0    14    5.5   205      9.3   877.3    0.00     861    999.0
 215   10:50   90.6    13    6.1   215     13.4   877.2    0.00     995    999.0
 215   11:00   90.8    13    4.6   235      9.6   877.1    0.00     963    999.0
 215   11:10   91.3    13    3.7   173     10.2   876.9    0.00     861    999.0
 215   11:20   93.1    12   10.6   146     18.9   876.6    0.00    1106    999.0
 215   11:30   93.4    11   11.6   167     19.5   876.6    0.00     947    999.0
 215   11:40   93.8    11   11.2   156     18.7   876.6    0.00     970    999.0
 215   11:50   93.5    11   11.6   156     21.9   876.6    0.00    1037    999.0
 215   12:00   94.0    11   12.9   165     19.5   876.5    0.00    1037    999.0
 215   12:10   94.3    11   17.0   156     23.3   876.4    0.00     980    999.0
 215   12:20   93.2    11   14.0   155     33.4   876.4    0.00     736    999.0
 215   12:30   94.5    11   16.6   166     27.0   876.4    0.00    1022    999.0
 215   12:40   94.4    11   14.7   146     22.2   876.3    0.00    1029    999.0
 215   12:50   93.9    11   14.3   144     22.5   876.2    0.00    1008    999.0
 215   13:00   94.8    10   14.2   148     21.3   876.0    0.00     997    999.0
 215   13:10   94.8     9   12.8   159     18.8   876.0    0.00     987    999.0
 215   13:20   95.0    10   15.6   166     25.7   875.9    0.00     973    999.0
 215   13:30   95.0    10   13.3   173     26.0   875.9    0.00     958    999.0
 215   13:40   95.5     9   16.3   144     23.0   875.7    0.00     946    999.0
 215   13:50   94.6     9   14.2   146     25.1   875.7    0.00     924    999.0
 215   14:00   95.6     9   17.2   153     26.9   875.5    0.00     907    999.0
 215   14:10   95.8     9   18.4   162     27.4   875.3    0.00     882    999.0
 215   14:20   95.1     9   15.1   149     26.7   875.3    0.00     855    999.0
 215   14:30   95.9     8   19.3   165     28.6   875.1    0.00     834    999.0
 215   14:40   94.6     8   14.3   147     25.6   875.0    0.00     808    999.0
 215   14:50   95.5     7   16.3   174     26.7   875.0    0.00     787    999.0
 215   15:00   95.5     7   13.6   159     24.3   875.0    0.00     762    999.0
 215   15:10   96.0     7   15.7   173     21.8   874.9    0.00     735    999.0
 215   15:20   95.3     7   11.0   183     19.5   874.9    0.00     706    999.0
 215   15:30   95.4     7   10.1   188     20.4   874.8    0.00     675    999.0
 215   15:40   95.1     7   10.2   176     17.9   874.8    0.00     642    999.0
 215   15:50   95.1     7   10.0   146     19.7   874.6    0.00     605    999.0
 215   16:00   95.3     7   12.7   149     17.3   874.5    0.00     569    999.0
 215   16:10   95.0     8   14.0   142     21.6   874.4    0.00     533    999.0
 215   16:20   95.2     8   13.2   162     23.1   874.4    0.00     483    999.0
 215   16:30   94.8     8    7.2   171     14.5   874.4    0.00     443    999.0
 215   16:40   94.8     8    8.1   192     12.4   874.3    0.00     382    999.0
 215   16:50   94.7     8    9.1   164     16.7   874.3    0.00     332    999.0
 215   17:00   94.2     8    6.4   152     12.0   874.2    0.00     307    999.0
 215   17:10   94.2     8   12.4   156     17.8   874.2    0.00     270    999.0
 215   17:20   94.1     8    9.7   163     14.7   874.2    0.00     250    999.0
 215   17:30   94.1     8   10.5   177     16.1   874.1    0.00     230    999.0
 215   17:40   93.7     8   11.3   164     15.6   874.1    0.00     205    999.0
 215   17:50   93.2     8   12.8   161     18.0   874.2    0.00     165    999.0
 215   18:00   92.6     8   13.4   158     17.7   874.2    0.00     117    999.0
 215   18:10   91.8     8   11.3   148     15.0   874.4    0.00      82    999.0
 215   18:20   91.2     8   10.7   160     14.1   874.5    0.00      67    999.0
 215   18:30   90.5     8   11.0   164     15.3   874.6    0.00      35    999.0
 215   18:40   89.4     8    9.6   163     13.4   874.6    0.00      18    999.0
 215   18:50   88.0     9    8.2   157     10.4   874.7    0.00       9    999.0
 215   19:00   86.6    10    6.6   156      8.6   874.9    0.00       4    999.0
 215   19:10   84.7    11    5.1   144      6.4   874.8    0.00       1    999.0
 215   19:20   83.1    12    4.6   144      6.1   874.9    0.00       0    999.0
 215   19:30   81.8    12    5.2   139      6.4   875.0    0.00       0    999.0
 215   19:40   80.6    13    4.6   131      5.6   875.1    0.00       0    999.0
 215   19:50   79.2    14    4.3   128      5.3   875.2    0.00       0    999.0
 215   20:00   78.5    14    4.0   124      5.1   875.3    0.00       0    999.0
 215   20:10   78.6    14    5.2   125      6.5   875.4    0.00       0    999.0
 215   20:20   77.5    14    5.8   110      6.7   875.6    0.00       0    999.0
 215   20:30   77.1    14    6.1   110      7.2   875.7    0.00       0    999.0
 215   20:40   78.4    12    7.3   126      9.1   875.8    0.00       0    999.0
 215   20:50   79.1    12    7.2   124      9.0   875.9    0.00       0    999.0
 215   21:00   77.5    13    4.3   160     10.3   876.1    0.00       0    999.0
 215   21:10   78.4    13    1.4   242      3.8   876.3    0.00       0    999.0
 215   21:20   77.1    13    1.4   187      2.9   876.3    0.00       0    999.0
 215   21:30   77.8    13    2.5   150      6.3   876.3    0.00       0    999.0
 215   21:40   78.7    13    4.6   130      6.6   876.2    0.00       0    999.0
 215   21:50   78.4    13    4.0    97      4.9   876.2    0.00       0    999.0
 215   22:00   78.4    13    6.3   112      8.6   876.2    0.00       0    999.0
 215   22:10   78.0    14    7.0   114      9.9   876.2    0.00       0    999.0
 215   22:20   77.9    13    8.4   108      9.7   876.2    0.00       0    999.0
 215   22:30   77.9    13    8.2   110     10.2   876.2    0.00       0    999.0
 215   22:40   78.4    13    8.2   114     10.9   876.3    0.00       0    999.0
 215   22:50   78.0    13    7.2   116      9.7   876.4    0.00       0    999.0
 215   23:00   79.1    12    7.6   134     11.8   876.4    0.00       0    999.0
 215   23:10   77.1    14    1.5   232      3.8   876.5    0.00       0    999.0
 215   23:20   76.8    14    3.3   156      7.8   876.5    0.00       0    999.0
 215   23:30   75.6    15    1.6   285      3.1   876.5    0.00       0    999.0
 215   23:40   75.0    15    1.3   312      5.6   876.6    0.00       0    999.0
 215   23:50   73.3    17    4.8   312      6.4   876.7    0.00       0    999.0
 216    0:00   70.1    21    6.0   328      7.7   876.7    0.00       0    999.0
 216    0:10   68.8    23    6.7   330      7.6   876.7    0.00       0    999.0
 216    0:20   69.5    22    6.7   329      8.1   876.7    0.00       0    999.0
 216    0:30   69.8    21    6.9   323      8.4   876.7    0.00       0    999.0
 216    0:40   69.1    22    6.4   320      8.1   876.7    0.00       0    999.0
 216    0:50   67.2    25    6.2   318      7.4   876.9    0.00       0    999.0
 216    1:00   65.8    27    5.2   321      6.3   876.9    0.00       0    999.0
 216    1:10   65.1    28    5.7   321      6.6   876.9    0.00       0    999.0
 216    1:20   65.2    28    5.1   340      7.2   877.0    0.00       0    999.0
 216    1:30   64.5    30    6.0   335      7.4   877.0    0.00       0    999.0
 216    1:40   64.4    30    3.1   344      5.8   877.0    0.00       0    999.0
 216    1:50   64.3    30    3.1     7      4.3   877.0    0.00       0    999.0
 216    2:00   65.0    29    0.9   177      2.5   877.0    0.00       0    999.0
 216    2:10   65.1    29    1.0   279      2.5   877.0    0.00       0    999.0
 216    2:20   64.2    30    2.7   333      4.7   877.1    0.00       0    999.0
 216    2:30   63.8    31    1.1    17      3.4   877.2    0.00       0    999.0
 216    2:40   63.3    32    0.4    42      1.5   877.3    0.00       0    999.0
 216    2:50   62.3    34    1.5    30      3.5   877.4    0.00       0    999.0
 216    3:00   61.3    35    2.1   328      3.8   877.5    0.00       0    999.0
 216    3:10   60.1    36    2.8   336      3.6   877.5    0.00       0    999.0
 216    3:20   59.7    38    3.5   342      4.3   877.6    0.00       0    999.0
 216    3:30   59.3    38    4.1   350      4.9   877.7    0.00       0    999.0
 216    3:40   60.0    38    2.1     8      3.7   877.7    0.00       0    999.0

Return to Sarcobatus Flat, Nevada graphs page.


Western Regional Climate Center,wrcc@dri.edu